createdAt,value
2018-12-12T00:01:01.909Z,100065.14
2018-12-12T00:03:27.883Z,100068.11
2018-12-12T00:05:53.866Z,100068.11
2018-12-12T00:08:19.850Z,100069.62
2018-12-12T00:10:45.801Z,100065.77
2018-12-12T00:13:11.804Z,100062.70
2018-12-12T00:15:37.782Z,100060.18
2018-12-12T00:18:03.794Z,100061.50
2018-12-12T00:20:29.757Z,100063.84
2018-12-12T00:22:55.744Z,100064.96
2018-12-12T00:25:21.709Z,100071.72
2018-12-12T00:27:47.657Z,100071.63
2018-12-12T00:30:13.637Z,100069.86
2018-12-12T00:32:39.595Z,100068.54
2018-12-12T00:35:05.553Z,100070.13
2018-12-12T00:37:31.508Z,100071.63
2018-12-12T00:39:57.492Z,100073.19
2018-12-12T00:42:23.456Z,100073.14
2018-12-12T00:44:49.449Z,100074.50
2018-12-12T00:47:15.757Z,100069.48
2018-12-12T00:49:41.724Z,100079.41
2018-12-12T00:52:07.712Z,100080.00
2018-12-12T00:54:33.681Z,100086.78
2018-12-12T00:56:59.679Z,100086.86
2018-12-12T00:59:25.657Z,100086.64
2018-12-12T01:01:51.626Z,100087.03
2018-12-12T01:04:17.589Z,100088.95
2018-12-12T01:06:43.555Z,100088.86
2018-12-12T01:09:09.676Z,100092.01
2018-12-12T01:11:35.636Z,100098.92
2018-12-12T01:14:01.629Z,100108.42
2018-12-12T01:16:27.596Z,100107.97
2018-12-12T01:18:53.558Z,100113.83
2018-12-12T01:21:19.529Z,100109.84
2018-12-12T01:23:45.477Z,100111.34
2018-12-12T01:26:11.433Z,100117.38
2018-12-12T01:28:37.391Z,100111.03
2018-12-12T01:31:03.358Z,100120.26
2018-12-12T01:33:29.359Z,100110.01
2018-12-12T01:35:55.328Z,100115.54
2018-12-12T01:38:21.278Z,100114.09
2018-12-12T01:40:47.918Z,100118.77
2018-12-12T01:43:13.913Z,100112.39
2018-12-12T01:45:39.921Z,100114.30
2018-12-12T01:48:05.870Z,100115.44
2018-12-12T01:50:31.840Z,100113.05
2018-12-12T01:52:57.798Z,100115.75
2018-12-12T01:55:24.375Z,100118.05
2018-12-12T01:57:50.854Z,100129.11
2018-12-12T02:00:17.021Z,100126.38
2018-12-12T02:02:43.059Z,100127.97
2018-12-12T02:05:09.045Z,100130.94
2018-12-12T02:07:34.988Z,100125.38
2018-12-12T02:10:00.970Z,100134.19
2018-12-12T02:12:26.939Z,100138.69
2018-12-12T02:14:52.905Z,100142.99
2018-12-12T02:17:18.867Z,100138.66
2018-12-12T02:19:44.860Z,100142.31
2018-12-12T02:22:10.823Z,100142.53
2018-12-12T02:24:36.800Z,100146.91
2018-12-12T02:27:02.791Z,100147.06
2018-12-12T02:29:28.746Z,100158.34
2018-12-12T02:31:54.698Z,100151.34
2018-12-12T02:34:20.660Z,100162.11
2018-12-12T02:36:46.636Z,100159.09
2018-12-12T02:39:12.600Z,100161.76
2018-12-12T02:41:38.561Z,100158.78
2018-12-12T02:44:04.506Z,100161.06
2018-12-12T02:46:30.473Z,100161.38
2018-12-12T02:48:56.444Z,100166.56
2018-12-12T02:51:22.435Z,100167.40
2018-12-12T02:56:23.337Z,100165.31
2018-12-12T02:58:49.339Z,100169.97
2018-12-12T03:01:15.305Z,100166.09
2018-12-12T03:03:41.291Z,100169.66
2018-12-12T03:06:07.348Z,100160.59
2018-12-12T03:08:33.360Z,100167.04
2018-12-12T03:10:59.368Z,100167.13
2018-12-12T03:13:25.348Z,100178.12
2018-12-12T03:15:51.347Z,100174.33
2018-12-12T03:18:17.344Z,100180.05
2018-12-12T03:20:44.193Z,100174.77
2018-12-12T03:23:10.191Z,100185.30
2018-12-12T03:25:36.134Z,100183.34
2018-12-12T03:28:02.097Z,100182.70
2018-12-12T03:30:28.084Z,100181.96
2018-12-12T03:32:54.049Z,100180.27
2018-12-12T03:35:20.000Z,100183.95
2018-12-12T03:37:45.966Z,100185.00
2018-12-12T03:40:11.949Z,100185.08
2018-12-12T03:42:38.044Z,100188.63
2018-12-12T03:45:04.035Z,100185.70
2018-12-12T03:47:32.338Z,100193.48
2018-12-12T03:49:58.526Z,100188.20
2018-12-12T03:52:24.489Z,100188.69
2018-12-12T03:54:50.511Z,100185.53
2018-12-12T03:57:16.459Z,100189.98
2018-12-12T03:59:42.421Z,100192.55
2018-12-12T04:02:08.378Z,100191.06
2018-12-12T04:04:34.330Z,100190.50
2018-12-12T04:07:00.323Z,100186.01
2018-12-12T04:09:26.284Z,100191.23
2018-12-12T04:11:52.285Z,100197.63
2018-12-12T04:14:18.274Z,100200.59
2018-12-12T04:16:44.252Z,100200.41
2018-12-12T04:19:10.444Z,100199.92
2018-12-12T04:21:36.398Z,100201.59
2018-12-12T04:29:06.423Z,100207.22
2018-12-12T04:31:32.371Z,100206.83
2018-12-12T04:34:04.210Z,100209.09
2018-12-12T04:36:31.256Z,100209.44
2018-12-12T04:38:57.250Z,100216.53
2018-12-12T04:41:24.236Z,100215.87
2018-12-12T04:46:22.652Z,100228.22
2018-12-12T04:48:48.620Z,100221.93
2018-12-12T04:51:14.691Z,100229.92
2018-12-12T04:53:41.324Z,100224.93
2018-12-12T04:56:07.291Z,100232.05
2018-12-12T04:58:34.317Z,100230.80
2018-12-12T05:01:00.277Z,100224.27
2018-12-12T05:03:26.238Z,100225.55
2018-12-12T05:05:52.241Z,100229.95
2018-12-12T05:08:18.197Z,100221.59
2018-12-12T05:10:44.186Z,100227.61
2018-12-12T05:13:10.149Z,100227.41
2018-12-12T05:15:40.923Z,100228.07
2018-12-12T05:18:06.952Z,100228.70
2018-12-12T05:20:32.938Z,100228.76
2018-12-12T05:22:58.910Z,100229.67
2018-12-12T05:25:24.922Z,100236.39
2018-12-12T05:27:50.987Z,100234.60
2018-12-12T05:30:16.971Z,100225.45
2018-12-12T05:32:42.944Z,100232.73
2018-12-12T05:35:08.941Z,100231.20
2018-12-12T05:37:35.668Z,100239.95
2018-12-12T05:40:01.662Z,100239.80
2018-12-12T05:42:27.717Z,100242.42
2018-12-12T05:44:53.746Z,100237.88
2018-12-12T05:47:19.699Z,100232.73
2018-12-12T05:49:45.656Z,100235.19
2018-12-12T05:52:12.240Z,100236.98
2018-12-12T05:54:38.248Z,100240.79
2018-12-12T05:57:04.276Z,100241.64
2018-12-12T05:59:30.320Z,100244.16
2018-12-12T06:01:56.525Z,100246.14
2018-12-12T06:04:22.697Z,100251.70
2018-12-12T06:06:48.783Z,100252.22
2018-12-12T06:09:14.763Z,100266.38
2018-12-12T06:11:40.842Z,100265.73
2018-12-12T06:14:06.833Z,100262.80
2018-12-12T06:16:32.808Z,100266.80
2018-12-12T06:18:58.796Z,100266.23
2018-12-12T06:21:24.761Z,100264.31
2018-12-12T06:23:50.767Z,100267.95
2018-12-12T06:26:16.772Z,100272.66
2018-12-12T06:28:42.782Z,100276.95
2018-12-12T06:31:08.740Z,100274.49
2018-12-12T06:33:34.768Z,100277.06
2018-12-12T06:36:01.917Z,100278.33
2018-12-12T06:38:27.892Z,100285.05
2018-12-12T06:40:53.864Z,100285.33
2018-12-12T06:43:19.923Z,100285.13
2018-12-12T06:45:45.893Z,100283.36
2018-12-12T06:48:11.861Z,100285.02
2018-12-12T06:50:37.864Z,100289.50
2018-12-12T06:53:03.835Z,100294.44
2018-12-12T06:55:29.843Z,100297.28
2018-12-12T07:08:01.643Z,100300.56
2018-12-12T07:10:27.606Z,100303.86
2018-12-12T07:12:53.572Z,100306.69
2018-12-12T07:15:19.674Z,100301.83
2018-12-12T07:17:45.792Z,100309.58
2018-12-12T07:20:11.789Z,100303.11
2018-12-12T07:22:37.810Z,100310.89
2018-12-12T07:25:03.809Z,100313.30
2018-12-12T07:27:29.763Z,100319.95
2018-12-12T07:29:55.701Z,100329.64
2018-12-12T07:32:25.985Z,100327.45
2018-12-12T07:34:50.528Z,100324.87
2018-12-12T07:37:16.937Z,100331.53
2018-12-12T07:39:42.906Z,100330.11
2018-12-12T07:42:08.940Z,100339.14
2018-12-12T07:44:34.944Z,100340.41
2018-12-12T07:47:00.931Z,100337.19
2018-12-12T07:49:26.885Z,100340.44
2018-12-12T07:51:52.879Z,100337.52
2018-12-12T07:54:18.862Z,100345.66
2018-12-12T07:56:45.183Z,100339.97
2018-12-12T07:59:11.694Z,100348.53
2018-12-12T08:01:37.646Z,100354.82
2018-12-12T08:04:03.615Z,100351.30
2018-12-12T08:06:29.609Z,100363.48
2018-12-12T08:08:55.683Z,100357.38
2018-12-12T08:11:21.651Z,100356.36
2018-12-12T08:13:47.625Z,100364.44
2018-12-12T08:16:13.585Z,100368.42
2018-12-12T08:18:39.599Z,100374.03
2018-12-12T08:21:05.979Z,100375.41
2018-12-12T08:23:31.983Z,100373.23
2018-12-12T08:25:58.011Z,100377.78
2018-12-12T08:28:23.997Z,100387.39
2018-12-12T08:30:49.975Z,100390.67
2018-12-12T08:33:16.017Z,100385.05
2018-12-12T08:35:41.984Z,100394.33
2018-12-12T08:38:08.639Z,100394.81
2018-12-12T08:40:34.656Z,100402.55
2018-12-12T08:43:00.620Z,100395.83
2018-12-12T08:45:26.639Z,100399.48
2018-12-12T08:47:52.644Z,100404.66
2018-12-12T08:50:18.618Z,100407.09
2018-12-12T08:52:44.604Z,100411.14
2018-12-12T08:55:17.418Z,100411.33
2018-12-12T08:57:39.687Z,100415.78
2018-12-12T09:00:05.799Z,100419.98
2018-12-12T09:02:31.913Z,100418.17
2018-12-12T09:04:57.928Z,100417.92
2018-12-12T09:07:23.881Z,100422.56
2018-12-12T09:09:50.727Z,100426.27
2018-12-12T09:12:16.708Z,100430.69
2018-12-12T09:14:42.676Z,100426.92
2018-12-12T09:17:09.747Z,100431.58
2018-12-12T09:19:36.057Z,100432.13
2018-12-12T09:22:02.060Z,100430.23
2018-12-12T09:24:28.036Z,100437.69
2018-12-12T09:26:54.028Z,100435.29
2018-12-12T09:29:19.984Z,100436.05
2018-12-12T09:31:45.943Z,100437.75
2018-12-12T09:34:11.920Z,100440.97
2018-12-12T09:36:37.881Z,100436.68
2018-12-12T09:39:03.842Z,100444.65
2018-12-12T09:41:29.817Z,100440.05
2018-12-12T09:43:55.788Z,100440.87
2018-12-12T09:46:22.699Z,100435.58
2018-12-12T09:48:53.853Z,100439.73
2018-12-12T09:51:19.833Z,100439.12
2018-12-12T09:53:45.823Z,100440.62
2018-12-12T09:56:12.835Z,100442.91
2018-12-12T09:58:38.817Z,100444.99
2018-12-12T10:01:04.757Z,100446.12
2018-12-12T10:03:31.275Z,100438.81
2018-12-12T10:05:58.589Z,100433.50
2018-12-12T10:13:32.467Z,100435.52
2018-12-12T10:15:58.520Z,100441.05
2018-12-12T10:18:24.510Z,100440.30
2018-12-12T10:20:50.539Z,100443.54
2018-12-12T10:23:16.615Z,100447.20
2018-12-12T10:25:42.556Z,100447.63
2018-12-12T10:28:08.537Z,100448.11
2018-12-12T10:30:34.520Z,100444.05
2018-12-12T10:33:01.196Z,100445.14
2018-12-12T10:35:27.180Z,100446.30
2018-12-12T10:37:53.194Z,100445.66
2018-12-12T10:40:22.747Z,100448.55
2018-12-12T10:42:48.741Z,100455.94
2018-12-12T10:45:14.769Z,100455.24
2018-12-12T10:47:40.784Z,100455.94
2018-12-12T10:50:06.744Z,100459.05
2018-12-12T10:52:32.692Z,100463.16
2018-12-12T10:54:58.650Z,100449.41
2018-12-12T10:57:24.600Z,100457.39
2018-12-12T10:59:50.703Z,100456.25
2018-12-12T11:02:16.850Z,100456.84
2018-12-12T11:04:42.828Z,100456.79
2018-12-12T11:07:08.827Z,100462.70
2018-12-12T11:09:34.822Z,100452.97
2018-12-12T11:12:00.874Z,100461.59
2018-12-12T11:14:26.856Z,100459.15
2018-12-12T11:16:52.879Z,100461.08
2018-12-12T11:19:18.822Z,100461.53
2018-12-12T11:21:44.822Z,100459.69
2018-12-12T11:24:10.819Z,100467.95
2018-12-12T11:26:36.797Z,100467.55
2018-12-12T11:29:02.800Z,100467.87
2018-12-12T11:31:28.768Z,100468.87
2018-12-12T11:33:54.712Z,100472.67
2018-12-12T11:36:20.671Z,100466.75
2018-12-12T11:38:46.634Z,100469.03
2018-12-12T11:41:12.577Z,100464.48
2018-12-12T11:43:38.548Z,100458.59
2018-12-12T11:46:04.529Z,100465.66
2018-12-12T11:48:30.528Z,100465.91
2018-12-12T11:50:56.508Z,100470.52
2018-12-12T11:53:22.465Z,100479.98
2018-12-12T11:55:48.428Z,100468.16
2018-12-12T11:58:14.430Z,100473.35
2018-12-12T12:00:40.392Z,100467.31
2018-12-12T12:03:06.399Z,100471.61
2018-12-12T12:05:32.982Z,100473.07
2018-12-12T12:07:59.081Z,100472.92
2018-12-12T12:10:25.140Z,100467.31
2018-12-12T12:12:51.112Z,100473.00
2018-12-12T12:15:17.130Z,100470.04
2018-12-12T12:17:43.116Z,100472.62
2018-12-12T12:20:09.109Z,100467.37
2018-12-12T12:22:35.103Z,100472.41
2018-12-12T12:25:02.170Z,100471.16
2018-12-12T12:27:28.156Z,100472.36
2018-12-12T12:29:54.144Z,100474.73
2018-12-12T12:32:20.101Z,100467.06
2018-12-12T12:34:46.929Z,100466.17
2018-12-12T12:37:12.895Z,100469.18
2018-12-12T12:42:10.885Z,100469.42
2018-12-12T12:44:37.647Z,100465.68
2018-12-12T12:47:03.627Z,100466.80
2018-12-12T12:49:29.598Z,100470.29
2018-12-12T12:51:55.579Z,100471.80
2018-12-12T12:54:21.545Z,100467.55
2018-12-12T12:56:47.516Z,100467.74
2018-12-12T12:59:14.504Z,100471.23
2018-12-12T13:01:40.485Z,100471.23
2018-12-12T13:04:09.593Z,100474.98
2018-12-12T13:06:34.471Z,100465.38
2018-12-12T13:09:00.431Z,100467.40
2018-12-12T13:11:26.456Z,100462.77
2018-12-12T13:13:52.435Z,100469.38
2018-12-12T13:16:18.412Z,100467.43
2018-12-12T13:18:44.438Z,100473.85
2018-12-12T13:21:10.392Z,100474.92
2018-12-12T13:23:36.384Z,100477.25
2018-12-12T13:28:35.149Z,100480.73
2018-12-12T13:31:01.132Z,100480.27
2018-12-12T13:33:27.132Z,100474.83
2018-12-12T13:35:53.077Z,100476.73
2018-12-12T13:38:19.095Z,100474.47
2018-12-12T13:40:45.099Z,100473.02
2018-12-12T13:43:11.092Z,100481.06
2018-12-12T13:45:37.080Z,100482.81
2018-12-12T13:48:03.082Z,100484.59
2018-12-12T13:50:29.208Z,100479.78
2018-12-12T13:52:55.276Z,100485.77
2018-12-12T13:55:21.289Z,100488.19
2018-12-12T13:57:52.345Z,100492.37
2018-12-12T14:00:18.362Z,100497.86
2018-12-12T14:02:44.390Z,100497.13
2018-12-12T14:05:10.375Z,100499.67
2018-12-12T14:07:39.475Z,100499.48
2018-12-12T14:10:05.438Z,100501.77
2018-12-12T14:12:31.388Z,100504.73
2018-12-12T14:14:57.436Z,100505.63
2018-12-12T14:17:24.296Z,100502.72
2018-12-12T14:19:50.295Z,100500.52
2018-12-12T14:22:16.247Z,100495.20
2018-12-12T14:24:42.221Z,100495.14
2018-12-12T14:27:08.211Z,100495.87
2018-12-12T14:29:34.179Z,100492.05
2018-12-12T14:32:00.147Z,100495.83
2018-12-12T14:34:29.234Z,100497.30
2018-12-12T14:36:54.165Z,100501.56
2018-12-12T14:39:20.136Z,100498.22
2018-12-12T14:41:46.089Z,100504.02
2018-12-12T14:44:12.132Z,100507.45
2018-12-12T14:46:38.140Z,100508.08
2018-12-12T14:49:04.103Z,100510.34
2018-12-12T14:51:31.147Z,100504.98
2018-12-12T14:53:57.237Z,100509.48
2018-12-12T14:56:23.213Z,100510.73
2018-12-12T14:58:49.331Z,100506.77
2018-12-12T15:01:15.310Z,100514.18
2018-12-12T15:03:41.316Z,100514.28
2018-12-12T15:06:07.303Z,100510.20
2018-12-12T15:08:34.306Z,100512.30
2018-12-12T15:11:03.299Z,100515.17
2018-12-12T15:13:31.472Z,100509.44
2018-12-12T15:15:58.264Z,100511.77
2018-12-12T15:18:24.347Z,100520.83
2018-12-12T15:20:51.478Z,100494.51
2018-12-12T15:23:19.733Z,100519.48
2018-12-12T15:28:17.348Z,100524.59
2018-12-12T15:30:44.417Z,100525.70
2018-12-12T15:33:13.259Z,100527.29
2018-12-12T15:35:43.745Z,100523.62
2018-12-12T15:38:13.747Z,100527.34
2018-12-12T15:43:11.018Z,100532.24
2018-12-12T15:45:39.306Z,100534.80
2018-12-12T15:48:06.342Z,100541.19
2018-12-12T15:50:36.347Z,100541.84
2018-12-12T15:53:03.397Z,100537.92
2018-12-12T15:55:29.521Z,100542.16
2018-12-12T15:58:00.125Z,100541.48
2018-12-12T16:00:29.129Z,100538.64
2018-12-12T16:02:55.162Z,100535.05
2018-12-12T16:10:24.580Z,100543.56
2018-12-12T16:12:50.642Z,100543.67
2018-12-12T16:15:20.143Z,100540.37
2018-12-12T16:17:46.172Z,100545.00
2018-12-12T16:22:45.900Z,100545.86
2018-12-12T16:25:12.952Z,100548.27
2018-12-12T16:27:38.953Z,100556.06
2018-12-12T16:30:07.047Z,100556.86
2018-12-12T16:32:33.097Z,100552.79
2018-12-12T16:34:59.167Z,100555.84
2018-12-12T16:39:59.031Z,100563.73
2018-12-12T16:42:25.216Z,100559.84
2018-12-12T16:44:51.205Z,100553.40
2018-12-12T16:47:17.307Z,100562.55
2018-12-12T16:49:43.320Z,100564.31
2018-12-12T16:52:09.681Z,100575.94
2018-12-12T16:54:35.644Z,100570.91
2018-12-12T16:57:02.618Z,100567.18
2018-12-12T16:59:28.953Z,100575.86
2018-12-12T17:01:54.945Z,100574.59
2018-12-12T17:04:20.903Z,100570.08
2018-12-12T17:06:46.997Z,100567.02
2018-12-12T17:09:13.012Z,100570.46
2018-12-12T17:16:44.020Z,100570.40
2018-12-12T17:19:09.983Z,100569.13
2018-12-12T17:21:35.979Z,100566.38
2018-12-12T17:24:01.961Z,100563.27
2018-12-12T17:26:27.927Z,100560.64
2018-12-12T17:28:53.903Z,100559.48
2018-12-12T17:31:19.905Z,100556.36
2018-12-12T17:33:46.414Z,100556.98
2018-12-12T17:36:13.763Z,100560.56
2018-12-12T17:38:39.705Z,100559.44
2018-12-12T17:41:05.940Z,100564.98
2018-12-12T17:43:31.917Z,100562.09
2018-12-12T17:45:57.884Z,100569.55
2018-12-12T17:48:23.825Z,100569.04
2018-12-12T17:50:49.829Z,100572.39
2018-12-12T17:53:16.592Z,100576.08
2018-12-12T17:55:42.528Z,100575.47
2018-12-12T17:58:08.472Z,100584.72
2018-12-12T18:00:34.415Z,100581.30
2018-12-12T18:03:00.497Z,100580.70
2018-12-12T18:05:26.443Z,100573.96
2018-12-12T18:07:52.432Z,100579.59
2018-12-12T18:10:18.392Z,100576.62
2018-12-12T18:12:44.379Z,100570.06
2018-12-12T18:15:10.344Z,100573.59
2018-12-12T18:17:36.323Z,100570.95
2018-12-12T18:20:02.272Z,100576.28
2018-12-12T18:22:28.258Z,100577.59
2018-12-12T18:24:55.250Z,100578.41
2018-12-12T18:27:21.240Z,100586.85
2018-12-12T18:29:47.203Z,100585.77
2018-12-12T18:32:15.246Z,100592.56
2018-12-12T18:34:41.276Z,100593.70
2018-12-12T18:37:07.311Z,100591.14
2018-12-12T18:39:37.604Z,100590.40
2018-12-12T18:42:03.606Z,100589.05
2018-12-12T18:44:33.150Z,100595.37
2018-12-12T18:46:59.149Z,100587.11
2018-12-12T18:49:25.126Z,100583.52
2018-12-12T18:51:51.123Z,100593.66
2018-12-12T18:54:17.150Z,100592.52
2018-12-12T18:56:43.130Z,100589.71
2018-12-12T18:59:09.093Z,100588.53
2018-12-12T19:01:35.097Z,100590.57
2018-12-12T19:04:01.505Z,100592.64
2018-12-12T19:06:27.444Z,100592.67
2018-12-12T19:08:53.415Z,100598.66
2018-12-12T19:11:19.384Z,100597.30
2018-12-12T19:13:45.331Z,100600.17
2018-12-12T19:16:11.304Z,100601.35
2018-12-12T19:18:37.294Z,100598.84
2018-12-12T19:21:03.279Z,100604.16
2018-12-12T19:23:29.264Z,100608.45
2018-12-12T19:25:55.241Z,100615.38
2018-12-12T19:28:21.246Z,100619.53
2018-12-12T19:30:47.190Z,100621.34
2018-12-12T19:33:13.389Z,100618.56
2018-12-12T19:35:39.731Z,100621.79
2018-12-12T19:38:05.711Z,100625.92
2018-12-12T19:40:31.675Z,100633.20
2018-12-12T19:42:57.656Z,100623.20
2018-12-12T19:45:23.840Z,100621.62
2018-12-12T19:47:49.818Z,100616.95
2018-12-12T19:50:15.767Z,100618.23
2018-12-12T19:52:41.838Z,100618.20
2018-12-12T19:55:07.797Z,100613.16
2018-12-12T19:57:33.752Z,100616.16
2018-12-12T19:59:59.740Z,100621.13
2018-12-12T20:02:30.241Z,100616.77
2018-12-12T20:04:56.216Z,100618.70
2018-12-12T20:07:22.185Z,100620.85
2018-12-12T20:09:48.172Z,100625.25
2018-12-12T20:12:14.116Z,100626.05
2018-12-12T20:14:41.095Z,100623.44
2018-12-12T20:17:07.039Z,100629.62
2018-12-12T20:19:33.011Z,100624.77
2018-12-12T20:21:58.977Z,100631.38
2018-12-12T20:24:24.941Z,100629.55
2018-12-12T20:26:50.892Z,100634.16
2018-12-12T20:29:16.882Z,100633.15
2018-12-12T20:31:43.208Z,100634.05
2018-12-12T20:34:10.279Z,100626.77
2018-12-12T20:36:36.228Z,100630.41
2018-12-12T20:39:02.210Z,100629.16
2018-12-12T20:41:28.186Z,100629.16
2018-12-12T20:43:54.168Z,100630.51
2018-12-12T20:46:20.104Z,100628.06
2018-12-12T20:48:46.066Z,100631.77
2018-12-12T20:56:20.361Z,100626.83
2018-12-12T20:58:46.343Z,100632.06
2018-12-12T21:01:12.294Z,100623.92
2018-12-12T21:11:11.892Z,100624.14
2018-12-12T21:13:37.927Z,100623.46
2018-12-12T21:16:03.866Z,100624.59
2018-12-12T21:18:29.825Z,100627.92
2018-12-12T21:20:55.789Z,100618.79
2018-12-12T21:23:21.810Z,100626.03
2018-12-12T21:25:47.763Z,100629.57
2018-12-12T21:30:45.064Z,100628.00
2018-12-12T21:33:11.046Z,100625.12
2018-12-12T21:35:36.976Z,100621.45
2018-12-12T21:38:02.938Z,100624.46
2018-12-12T21:40:28.888Z,100621.20
2018-12-12T21:42:54.861Z,100621.29
2018-12-12T21:45:20.805Z,100621.46
2018-12-12T21:47:46.759Z,100626.80
2018-12-12T21:50:12.695Z,100625.83
2018-12-12T21:52:39.624Z,100627.22
2018-12-12T21:55:05.576Z,100622.70
2018-12-12T21:57:31.527Z,100620.08
2018-12-12T21:59:57.488Z,100615.31
2018-12-12T22:02:23.440Z,100608.93
2018-12-12T22:04:49.407Z,100605.42
2018-12-12T22:07:15.353Z,100611.44
2018-12-12T22:09:41.347Z,100613.01
2018-12-12T22:12:07.355Z,100621.81
2018-12-12T22:14:33.352Z,100618.70
2018-12-12T22:16:59.313Z,100617.73
2018-12-12T22:19:25.268Z,100623.61
2018-12-12T22:21:51.267Z,100628.15
2018-12-12T22:24:18.316Z,100621.34
2018-12-12T22:26:44.304Z,100619.06
2018-12-12T22:29:10.290Z,100615.20
2018-12-12T22:31:36.221Z,100617.94
2018-12-12T22:34:02.174Z,100612.26
2018-12-12T22:36:29.040Z,100616.59
2018-12-12T22:38:54.984Z,100624.23
2018-12-12T22:41:20.948Z,100622.39
2018-12-12T22:43:46.982Z,100619.81
2018-12-12T22:46:13.824Z,100616.02
2018-12-12T22:48:39.780Z,100616.88
2018-12-12T22:51:05.757Z,100612.45
2018-12-12T22:53:31.740Z,100618.02
2018-12-12T22:55:57.695Z,100621.91
2018-12-12T22:58:23.667Z,100624.05
2018-12-12T23:00:49.619Z,100617.03
2018-12-12T23:03:15.572Z,100619.06
2018-12-12T23:05:41.551Z,100623.16
2018-12-12T23:08:07.497Z,100615.09
2018-12-12T23:10:33.484Z,100616.25
2018-12-12T23:13:00.088Z,100612.21
2018-12-12T23:15:26.080Z,100618.50
2018-12-12T23:17:52.018Z,100619.67
2018-12-12T23:20:17.968Z,100622.42
2018-12-12T23:22:43.903Z,100627.73
2018-12-12T23:25:10.551Z,100625.47
2018-12-12T23:27:36.504Z,100621.78
2018-12-12T23:30:02.456Z,100621.78
2018-12-12T23:32:28.395Z,100621.34
2018-12-12T23:34:54.331Z,100617.93
2018-12-12T23:37:20.274Z,100618.50
2018-12-12T23:39:46.217Z,100616.90
2018-12-12T23:42:12.160Z,100612.66
2018-12-12T23:44:38.127Z,100618.45
2018-12-12T23:47:05.071Z,100617.27
2018-12-12T23:49:31.131Z,100615.80
2018-12-12T23:51:57.087Z,100614.17
2018-12-12T23:54:23.037Z,100612.56
2018-12-12T23:59:22.224Z,100608.58
